Time;durP1;ratioP1;P1;durP2;ratioP2;P2;SDS_P1;SDS_P2;PMS_P1;PMS_P2;Temp;Humidity;BMP_temperature;BMP_pressure;BME280_temperature;BME280_humidity;BME280_pressure;Samples;Min_cycle;Max_cycle;Signal;HPM_P1;HPM_P2
2022/07/18 00:01:51;;;;;;;8.02;3.42;;;;;;;17.47;52.72;101187.66;5017331;28;100916;-73
2022/07/18 00:04:17;;;;;;;7.97;3.20;;;;;;;17.42;52.74;101191.41;5033490;28;97563;-73
2022/07/18 00:06:42;;;;;;;6.82;3.40;;;;;;;17.20;52.83;101173.00;5012197;28;96870;-73
2022/07/18 00:09:08;;;;;;;7.72;3.58;;;;;;;17.31;52.91;101180.47;5012622;28;96939;-74
2022/07/18 00:11:33;;;;;;;5.78;2.72;;;;;;;17.35;52.81;101187.31;5030011;28;97808;-72
2022/07/18 00:13:59;;;;;;;10.57;3.33;;;;;;;17.37;53.03;101181.97;5012364;28;100937;-78
2022/07/18 00:16:24;;;;;;;7.28;3.20;;;;;;;17.36;52.62;101181.06;4993164;28;96746;-73
2022/07/18 00:18:50;;;;;;;7.18;3.20;;;;;;;17.36;52.52;101166.94;5000494;28;96956;-73
2022/07/18 00:21:16;;;;;;;9.65;3.10;;;;;;;17.49;52.26;101175.19;5015901;28;97442;-73
2022/07/18 00:23:41;;;;;;;5.18;3.00;;;;;;;17.33;52.71;101152.03;5013240;28;97560;-74
2022/07/18 00:26:07;;;;;;;8.18;2.90;;;;;;;17.41;52.41;101170.25;5012968;28;97424;-73
2022/07/18 00:28:32;;;;;;;8.77;3.63;;;;;;;17.40;52.57;101165.88;5005269;28;97185;-73
2022/07/18 00:30:58;;;;;;;10.88;3.30;;;;;;;17.28;52.63;101169.09;5022814;28;98116;-78
2022/07/18 00:33:23;;;;;;;11.50;3.85;;;;;;;17.22;52.82;101151.72;5017552;28;97622;-73
2022/07/18 00:35:49;;;;;;;12.55;3.45;;;;;;;17.17;53.07;101161.69;4993598;28;96994;-73
2022/07/18 00:38:15;;;;;;;10.93;3.42;;;;;;;17.06;53.28;101159.53;5012919;28;97387;-73
2022/07/18 00:40:40;;;;;;;10.85;3.53;;;;;;;17.06;52.81;101171.94;4994036;28;101100;-73
2022/07/18 00:43:06;;;;;;;16.73;3.22;;;;;;;17.06;53.37;101171.94;5057635;27;98328;-73
2022/07/18 00:45:31;;;;;;;19.23;3.92;;;;;;;16.92;53.38;101160.19;5049485;27;97992;-73
2022/07/18 00:47:57;;;;;;;21.48;5.10;;;;;;;17.08;53.40;101162.13;5028224;27;96855;-73
2022/07/18 00:50:23;;;;;;;32.60;5.47;;;;;;;17.06;52.97;101169.31;5035695;27;101287;-73
2022/07/18 00:52:50;;;;;;;34.80;6.10;;;;;;;17.09;53.01;101156.75;5056313;27;98142;-75
2022/07/18 00:55:16;;;;;;;37.55;6.63;;;;;;;16.93;53.04;101146.03;5052973;27;96638;-73
2022/07/18 00:57:42;;;;;;;39.55;8.18;;;;;;;16.97;53.17;101154.69;5037518;27;97372;-73
2022/07/18 01:02:54;;;;;;;42.35;7.75;;;;;;;17.01;53.00;101160.69;5036536;27;101495;-73
2022/07/18 01:05:19;;;;;;;50.92;7.93;;;;;;;16.95;53.10;101165.34;5047157;27;98093;-72
2022/07/18 01:07:45;;;;;;;50.22;9.05;;;;;;;17.07;52.73;101166.56;5038629;27;96975;-72
2022/07/18 01:10:10;;;;;;;62.47;10.63;;;;;;;17.04;52.64;101172.00;5074136;27;97470;-73
2022/07/18 01:12:36;;;;;;;55.58;8.43;;;;;;;16.97;52.58;101168.78;5035240;27;101626;-74
2022/07/18 01:15:02;;;;;;;51.03;7.78;;;;;;;16.93;52.74;101172.53;5036090;27;96632;-78
2022/07/18 01:17:27;;;;;;;57.38;9.60;;;;;;;16.85;52.99;101174.69;5049784;27;97047;-73
2022/07/18 01:19:53;;;;;;;38.92;7.68;;;;;;;16.75;53.00;101176.00;5036632;27;101311;-73
2022/07/18 01:22:19;;;;;;;37.92;7.75;;;;;;;16.73;53.42;101176.09;5038160;27;101040;-73
2022/07/18 01:24:45;;;;;;;47.70;7.65;;;;;;;16.62;53.52;101167.75;5037538;27;96702;-73
2022/07/18 01:27:16;;;;;;;39.95;9.07;;;;;;;16.60;53.53;101174.91;5041271;27;97634;-73
2022/07/18 01:29:42;;;;;;;34.57;6.63;;;;;;;16.52;53.57;101167.34;5039047;27;101853;-73
2022/07/18 01:32:08;;;;;;;40.90;9.15;;;;;;;16.59;53.63;101172.34;5052573;27;101540;-73
2022/07/18 01:34:34;;;;;;;28.63;5.53;;;;;;;16.66;53.09;101171.13;5033124;27;98470;-73
2022/07/18 01:37:01;;;;;;;34.92;5.95;;;;;;;16.64;52.55;101178.28;5052548;27;96817;-73
2022/07/18 01:39:27;;;;;;;26.52;5.32;;;;;;;16.89;51.52;101175.41;5025287;27;101919;-73
2022/07/18 01:42:00;;;;;;;18.83;4.53;;;;;;;16.80;51.39;101158.13;5051862;27;97690;-73
2022/07/18 01:44:26;;;;;;;21.77;4.15;;;;;;;16.72;51.60;101176.13;5055644;27;96779;-73
2022/07/18 01:46:52;;;;;;;7.97;3.20;;;;;;;16.33;52.00;101149.69;5038043;27;96815;-73
2022/07/18 01:49:18;;;;;;;17.30;3.50;;;;;;;16.38;52.36;101175.03;5072523;27;98439;-74
2022/07/18 01:51:49;;;;;;;9.38;2.92;;;;;;;16.54;51.51;101151.34;5035077;27;100875;-74
2022/07/18 01:54:14;;;;;;;9.77;3.03;;;;;;;16.28;51.97;101158.66;5024365;27;97357;-75
2022/07/18 01:56:40;;;;;;;9.02;2.53;;;;;;;16.35;52.35;101174.28;5037396;27;97196;-73
2022/07/18 01:59:05;;;;;;;14.98;3.70;;;;;;;16.51;51.75;101164.72;5041186;27;101855;-73
2022/07/18 02:01:31;;;;;;;15.20;2.78;;;;;;;16.40;52.19;101173.16;5039294;27;101492;-73
2022/07/18 02:03:56;;;;;;;10.48;2.95;;;;;;;16.39;52.69;101181.19;5041493;27;96945;-73
2022/07/18 02:06:22;;;;;;;13.00;2.85;;;;;;;16.31;52.40;101157.69;5021843;27;96937;-73
2022/07/18 02:08:47;;;;;;;10.10;2.92;;;;;;;16.23;52.69;101175.69;5031982;27;101507;-75
2022/07/18 02:11:13;;;;;;;8.70;2.60;;;;;;;16.22;53.21;101189.88;5057905;27;101143;-74
2022/07/18 02:13:39;;;;;;;13.93;3.20;;;;;;;16.31;52.94;101189.47;5076338;27;97044;-72
2022/07/18 02:16:04;;;;;;;6.28;2.55;;;;;;;16.17;52.94;101181.25;5056097;27;97306;-78
2022/07/18 02:18:33;;;;;;;6.15;2.58;;;;;;;16.18;53.45;101185.66;5048346;27;101108;-73
2022/07/18 02:20:59;;;;;;;13.80;3.15;;;;;;;16.05;53.78;101188.81;5041952;27;97484;-73
2022/07/18 02:23:25;;;;;;;9.65;4.00;;;;;;;16.03;53.73;101190.69;5038049;27;96741;-73
2022/07/18 02:25:50;;;;;;;13.30;3.30;;;;;;;16.01;53.45;101175.78;5015953;27;96881;-73
2022/07/18 02:28:16;;;;;;;6.95;2.95;;;;;;;16.13;53.48;101187.63;5037209;27;100929;-73
2022/07/18 02:30:41;;;;;;;11.10;3.28;;;;;;;16.07;53.50;101189.63;5039319;27;100911;-72
2022/07/18 02:33:07;;;;;;;8.77;2.65;;;;;;;15.99;53.69;101167.03;5036342;27;96880;-78
2022/07/18 02:35:32;;;;;;;6.07;2.42;;;;;;;16.10;53.47;101187.78;5083681;27;96950;-73
2022/07/18 02:37:57;;;;;;;7.38;2.38;;;;;;;16.06;53.73;101189.69;5028518;27;101413;-73
2022/07/18 02:40:23;;;;;;;6.90;2.88;;;;;;;16.00;53.62;101176.72;5052197;27;101687;-73
2022/07/18 02:42:49;;;;;;;10.63;2.78;;;;;;;16.18;53.13;101170.63;5027724;27;96959;-73
2022/07/18 02:45:14;;;;;;;6.00;2.75;;;;;;;15.98;54.12;101179.41;5054400;27;96909;-73
2022/07/18 02:47:40;;;;;;;11.18;2.95;;;;;;;15.79;53.95;101181.13;5038172;27;100932;-72
2022/07/18 02:50:06;;;;;;;5.25;2.47;;;;;;;15.95;53.82;101176.06;5052867;27;97445;-78
2022/07/18 02:52:31;;;;;;;4.30;2.13;;;;;;;15.93;53.59;101181.41;5037334;27;96739;-73
2022/07/18 02:54:57;;;;;;;5.45;2.20;;;;;;;15.80;54.24;101182.88;5067575;27;96814;-73
2022/07/18 02:57:23;;;;;;;10.38;2.83;;;;;;;15.75;54.46;101180.41;5074566;27;97561;-73
2022/07/18 02:59:48;;;;;;;8.07;2.35;;;;;;;15.61;54.71;101169.50;5041375;27;98094;-72
2022/07/18 03:02:14;;;;;;;9.60;2.70;;;;;;;15.73;54.60;101184.03;5057672;27;96828;-73
2022/07/18 03:04:40;;;;;;;5.78;2.30;;;;;;;15.62;54.93;101173.88;5042348;27;96816;-73
2022/07/18 03:07:05;;;;;;;6.43;2.80;;;;;;;15.68;54.97;101181.59;5076165;27;98357;-73
2022/07/18 03:09:30;;;;;;;5.70;2.38;;;;;;;15.75;54.62;101169.81;5054183;27;97655;-73
2022/07/18 03:11:57;;;;;;;5.55;2.42;;;;;;;15.75;54.53;101158.38;5058404;27;97282;-73
2022/07/18 03:14:23;;;;;;;9.50;2.90;;;;;;;15.83;54.62;101170.34;5020518;27;97266;-73
2022/07/18 03:16:48;;;;;;;8.20;2.80;;;;;;;15.63;54.63;101159.72;5030966;27;101871;-72
2022/07/18 03:19:14;;;;;;;8.30;2.45;;;;;;;15.50;55.37;101161.97;5039442;27;97499;-73
2022/07/18 03:21:40;;;;;;;9.35;2.60;;;;;;;15.65;55.23;101183.44;5041378;27;96854;-73
2022/07/18 03:24:05;;;;;;;13.05;3.33;;;;;;;15.69;55.06;101183.31;5057177;27;96844;-73
2022/07/18 03:26:31;;;;;;;11.73;2.85;;;;;;;15.61;55.60;101180.94;5055824;27;98079;-73
2022/07/18 03:28:56;;;;;;;8.32;3.05;;;;;;;15.62;55.33;101180.03;5041011;27;101939;-72
2022/07/18 03:31:22;;;;;;;8.20;2.47;;;;;;;15.61;55.43;101174.78;5037297;27;96788;-73
2022/07/18 03:33:48;;;;;;;7.45;2.95;;;;;;;15.71;55.23;101177.97;5021174;27;97184;-72
2022/07/18 03:36:13;;;;;;;6.95;2.67;;;;;;;15.65;55.02;101164.91;5033639;27;101381;-73
2022/07/18 03:38:42;;;;;;;7.97;2.88;;;;;;;15.79;54.87;101189.06;5036884;27;101543;-72
2022/07/18 03:41:10;;;;;;;5.25;2.92;;;;;;;15.55;54.95;101165.31;5031213;27;96721;-78
2022/07/18 03:43:37;;;;;;;7.53;2.70;;;;;;;15.91;54.45;101187.69;5039795;27;96764;-73
2022/07/18 03:46:02;;;;;;;10.63;2.88;;;;;;;16.05;54.18;101185.31;5020785;27;100952;-72
2022/07/18 03:48:28;;;;;;;9.52;2.97;;;;;;;15.86;55.18;101187.03;5051185;27;100886;-73
2022/07/18 03:50:53;;;;;;;7.45;2.67;;;;;;;15.94;54.84;101198.13;5058211;27;97287;-73
2022/07/18 03:53:19;;;;;;;9.80;2.80;;;;;;;16.10;54.36;101188.63;5056677;27;97295;-73
2022/07/18 03:55:45;;;;;;;6.00;3.08;;;;;;;16.13;53.87;101195.56;5056769;27;97469;-73
2022/07/18 03:58:10;;;;;;;5.82;2.80;;;;;;;16.01;54.38;101181.94;5039535;27;102366;-78
2022/07/18 04:00:36;;;;;;;6.20;2.60;;;;;;;16.29;53.37;101204.59;5053132;27;96720;-73
2022/07/18 04:03:01;;;;;;;8.18;3.00;;;;;;;16.22;54.08;101198.69;5037947;27;96992;-72
2022/07/18 04:05:27;;;;;;;9.77;2.88;;;;;;;16.36;53.33;101202.53;5014685;27;101316;-73
2022/07/18 04:07:52;;;;;;;5.72;2.30;;;;;;;16.34;53.33;101210.53;5056979;27;97645;-73
2022/07/18 04:10:18;;;;;;;9.85;2.72;;;;;;;16.31;53.45;101205.38;5045347;27;96646;-73
2022/07/18 04:12:46;;;;;;;5.50;2.70;;;;;;;16.27;53.21;101179.94;5034584;27;97126;-73
2022/07/18 04:15:11;;;;;;;8.68;2.90;;;;;;;16.42;53.07;101191.66;5039729;27;101407;-78
2022/07/18 04:17:36;;;;;;;6.38;2.58;;;;;;;16.55;52.89;101189.28;5056681;27;98644;-73
2022/07/18 04:20:02;;;;;;;8.25;2.90;;;;;;;16.51;52.69;101200.03;5057503;27;97130;-73
2022/07/18 04:22:28;;;;;;;6.50;2.72;;;;;;;16.37;53.05;101204.22;5035705;27;97180;-73
2022/07/18 04:24:53;;;;;;;5.35;2.63;;;;;;;16.52;52.58;101180.56;5035760;27;101314;-73
2022/07/18 04:27:19;;;;;;;9.25;3.28;;;;;;;16.47;52.25;101179.06;5031069;27;97681;-73
2022/07/18 04:29:44;;;;;;;8.65;2.75;;;;;;;16.49;52.49;101186.03;5041015;27;96742;-73
2022/07/18 04:32:10;;;;;;;7.45;3.72;;;;;;;16.50;52.96;101182.44;5024058;27;96995;-73
2022/07/18 04:34:35;;;;;;;7.40;2.72;;;;;;;16.70;52.78;101181.53;5056317;27;101464;-75
2022/07/18 04:37:01;;;;;;;10.48;3.22;;;;;;;16.69;52.11;101178.94;5040614;27;101598;-73
2022/07/18 04:39:26;;;;;;;10.27;3.40;;;;;;;16.68;52.47;101188.69;5036181;27;97440;-74
2022/07/18 04:41:51;;;;;;;6.88;2.75;;;;;;;16.87;52.52;101190.50;5038229;27;97392;-73
2022/07/18 04:44:17;;;;;;;8.63;3.20;;;;;;;16.82;52.67;101168.66;5022246;27;101256;-73
2022/07/18 04:46:42;;;;;;;10.30;2.85;;;;;;;17.31;52.04;101177.81;5040095;27;97169;-73
2022/07/18 04:49:08;;;;;;;8.65;3.58;;;;;;;17.62;51.73;101185.09;5057282;27;97150;-73
2022/07/18 04:51:33;;;;;;;8.57;3.30;;;;;;;17.70;51.70;101190.03;5039706;27;97273;-74
2022/07/18 04:53:59;;;;;;;10.27;3.60;;;;;;;17.58;51.42;101188.84;5022113;27;101585;-73
2022/07/18 04:56:24;;;;;;;6.15;2.53;;;;;;;17.60;51.71;101183.47;5021971;27;101117;-74
2022/07/18 04:58:50;;;;;;;9.88;3.15;;;;;;;17.62;51.59;101195.72;5039877;27;98573;-73
2022/07/18 05:01:15;;;;;;;8.20;2.70;;;;;;;17.72;51.16;101180.22;5022955;27;96948;-78
2022/07/18 05:03:41;;;;;;;5.93;2.70;;;;;;;18.00;51.01;101177.03;5036074;27;97578;-73
2022/07/18 05:06:06;;;;;;;9.93;2.97;;;;;;;18.10;50.84;101180.94;5035934;27;101291;-75
2022/07/18 05:08:32;;;;;;;12.35;3.00;;;;;;;18.24;50.57;101179.38;5035236;27;96673;-75
2022/07/18 05:10:57;;;;;;;10.73;3.55;;;;;;;18.15;51.14;101164.75;5056319;27;97104;-73
2022/07/18 05:13:23;;;;;;;11.23;3.97;;;;;;;18.34;50.03;101177.94;5041772;27;101332;-73
2022/07/18 05:15:48;;;;;;;8.30;2.83;;;;;;;18.40;49.50;101179.41;5032723;27;97463;-73
2022/07/18 05:18:14;;;;;;;9.23;3.00;;;;;;;18.65;49.70;101179.81;5075316;27;96740;-78
2022/07/18 05:20:39;;;;;;;6.47;2.50;;;;;;;18.81;48.96;101181.66;5039913;27;96822;-74
2022/07/18 05:23:05;;;;;;;6.55;2.63;;;;;;;18.87;48.33;101178.66;5034804;27;101264;-74
2022/07/18 05:25:30;;;;;;;4.85;2.47;;;;;;;19.09;47.39;101187.19;5029376;27;97513;-73
2022/07/18 05:27:56;;;;;;;6.20;3.03;;;;;;;19.39;46.81;101186.38;5055540;27;96776;-73
2022/07/18 05:30:23;;;;;;;9.15;3.20;;;;;;;19.77;46.29;101180.66;5035787;27;97161;-73
2022/07/18 05:32:49;;;;;;;7.10;2.55;;;;;;;19.70;45.92;101180.19;5023457;27;100030;-72
2022/07/18 05:35:15;;;;;;;10.45;2.85;;;;;;;19.68;46.04;101185.56;5022188;27;101590;-77
2022/07/18 05:37:41;;;;;;;11.60;2.67;;;;;;;19.69;46.05;101183.75;5026705;27;97164;-73
2022/07/18 05:40:09;;;;;;;11.07;3.13;;;;;;;19.64;46.39;101162.72;5037903;27;96795;-75
2022/07/18 05:42:34;;;;;;;7.13;3.53;;;;;;;19.85;46.17;101181.06;5058341;27;97510;-73
2022/07/18 05:45:00;;;;;;;5.28;2.63;;;;;;;20.03;45.84;101181.78;5048573;27;99917;-74
2022/07/18 05:47:25;;;;;;;9.40;2.58;;;;;;;20.10;45.65;101180.44;5056598;27;97139;-74
2022/07/18 05:49:51;;;;;;;5.72;2.45;;;;;;;20.25;45.78;101181.34;5020948;27;97273;-73
2022/07/18 05:52:16;;;;;;;10.38;3.13;;;;;;;20.19;45.31;101158.59;5040350;27;101424;-76
2022/07/18 05:54:42;;;;;;;7.05;2.58;;;;;;;20.42;45.33;101175.84;5040712;27;101413;-75
2022/07/18 05:57:07;;;;;;;6.40;2.47;;;;;;;20.56;44.87;101175.84;5060489;27;96736;-71
2022/07/18 05:59:33;;;;;;;7.95;2.65;;;;;;;20.61;44.75;101175.56;5038662;27;97256;-72
2022/07/18 06:01:58;;;;;;;9.05;2.90;;;;;;;20.71;44.61;101181.19;5049176;27;97651;-73
2022/07/18 06:04:24;;;;;;;10.93;3.13;;;;;;;21.26;43.46;101180.31;5040499;27;97992;-74
2022/07/18 06:06:49;;;;;;;10.00;3.55;;;;;;;22.13;41.88;101163.78;5053053;27;96758;-73
2022/07/18 06:09:16;;;;;;;10.63;2.83;;;;;;;23.50;39.79;101165.59;5022268;27;97183;-73
2022/07/18 06:11:42;;;;;;;6.55;2.63;;;;;;;23.69;39.81;101169.53;5047764;27;98519;-73
2022/07/18 06:14:07;;;;;;;9.77;2.72;;;;;;;23.86;39.00;101149.53;5040520;27;97793;-73
2022/07/18 06:16:33;;;;;;;15.20;3.25;;;;;;;24.49;38.28;101174.13;5025565;27;96898;-74
2022/07/18 06:18:58;;;;;;;8.20;2.75;;;;;;;25.88;35.86;101167.25;5041150;27;96824;-73
2022/07/18 06:21:25;;;;;;;13.20;2.70;;;;;;;27.02;33.21;101150.94;5023286;27;101180;-76
2022/07/18 06:23:50;;;;;;;8.57;3.53;;;;;;;27.14;33.05;101164.25;5057898;27;97619;-73
2022/07/18 06:26:16;;;;;;;9.70;3.28;;;;;;;28.46;31.31;101158.25;5049438;27;96849;-74
2022/07/18 06:28:41;;;;;;;6.22;2.47;;;;;;;29.18;29.51;101158.47;5068081;27;96876;-73
2022/07/18 06:31:07;;;;;;;8.05;2.65;;;;;;;29.29;28.93;101139.31;5036179;27;97463;-74
2022/07/18 06:33:32;;;;;;;8.85;2.40;;;;;;;29.75;28.51;101154.44;5027690;27;97399;-74
2022/07/18 06:35:58;;;;;;;9.32;2.67;;;;;;;30.57;27.88;101156.84;5040936;27;97159;-74
2022/07/18 06:38:23;;;;;;;8.05;2.42;;;;;;;31.20;27.12;101148.25;5040149;27;96978;-74
2022/07/18 06:40:49;;;;;;;4.15;1.95;;;;;;;31.10;26.36;101143.00;5023585;27;102472;-74
2022/07/18 06:43:19;;;;;;;6.28;1.80;;;;;;;30.90;26.08;101144.31;5072367;27;97384;-74
2022/07/18 06:45:46;;;;;;;6.72;1.85;;;;;;;31.04;26.04;101145.50;5031745;27;96720;-74
2022/07/18 06:48:13;;;;;;;4.97;1.90;;;;;;;31.29;26.07;101146.41;5049604;27;96750;-74
2022/07/18 06:50:39;;;;;;;9.35;2.22;;;;;;;31.11;26.02;101143.84;5050648;27;100853;-73
2022/07/18 06:53:04;;;;;;;5.88;1.88;;;;;;;31.37;25.48;101126.63;5071931;27;99885;-74
2022/07/18 06:55:29;;;;;;;4.13;1.83;;;;;;;31.62;25.45;101139.19;5057595;27;98190;-75
2022/07/18 06:57:55;;;;;;;7.70;1.63;;;;;;;31.96;25.34;101141.69;5057261;27;96859;-74
2022/07/18 07:00:20;;;;;;;4.00;1.83;;;;;;;32.21;25.01;101131.66;5039511;27;98095;-78
2022/07/18 07:02:48;;;;;;;4.03;1.60;;;;;;;32.69;24.76;101116.19;5039205;27;98399;-74
2022/07/18 07:05:15;;;;;;;5.40;2.00;;;;;;;33.40;23.23;101128.88;5022964;27;96710;-74
2022/07/18 07:07:41;;;;;;;5.35;1.65;;;;;;;33.31;23.36;101133.53;5037426;27;97406;-75
2022/07/18 07:10:07;;;;;;;4.05;1.92;;;;;;;33.30;23.20;101121.78;5030412;27;101525;-74
2022/07/18 07:12:59;;;;;;;4.60;1.80;;;;;;;33.25;23.13;101126.06;5020503;27;101122;-74
2022/07/18 07:15:24;;;;;;;6.00;2.05;;;;;;;33.41;23.46;101122.38;5033799;27;96879;-74
2022/07/18 07:17:51;;;;;;;7.85;1.75;;;;;;;34.06;22.57;101121.81;5075344;27;96664;-73
2022/07/18 07:20:21;;;;;;;5.55;1.75;;;;;;;33.73;21.92;101124.00;5038000;27;101502;-75
2022/07/18 07:22:50;;;;;;;;;;;;;;;34.00;20.80;101125.25;5039320;27;102637;-77
2022/07/18 07:25:17;;;;;;;4.82;1.83;;;;;;;34.19;21.17;101118.44;5052583;27;97281;-79
2022/07/18 07:27:42;;;;;;;7.28;2.05;;;;;;;33.32;21.64;101118.88;5056234;27;98161;-79
2022/07/18 07:30:08;;;;;;;3.92;1.85;;;;;;;32.94;21.74;101110.63;5048845;27;101614;-79
2022/07/18 07:32:39;;;;;;;4.28;1.38;;;;;;;33.74;21.86;101104.75;5058861;27;100425;-79
2022/07/18 07:35:11;;;;;;;6.55;1.50;;;;;;;34.39;21.07;101100.50;5019163;27;96843;-77
2022/07/18 07:37:40;;;;;;;6.47;1.75;;;;;;;34.10;21.20;101084.19;5013341;27;98509;-77
2022/07/18 07:40:07;;;;;;;4.20;1.70;;;;;;;34.22;21.34;101099.84;5038440;27;97647;-77
2022/07/18 07:42:32;;;;;;;6.45;1.60;;;;;;;35.30;21.46;101098.19;5025642;27;101847;-77
2022/07/18 07:44:58;;;;;;;6.18;2.03;;;;;;;35.27;21.12;101098.59;5042870;27;97026;-77
2022/07/18 07:47:23;;;;;;;3.95;1.50;;;;;;;35.84;20.19;101096.78;5050101;27;97346;-79
2022/07/18 07:49:49;;;;;;;3.55;1.73;;;;;;;35.12;19.70;101086.91;5032911;27;97708;-79
2022/07/18 07:52:16;;;;;;;3.03;1.35;;;;;;;34.53;20.09;101090.63;5044003;27;97339;-80
2022/07/18 07:54:44;;;;;;;3.78;1.88;;;;;;;34.16;20.53;101080.69;5037814;27;96893;-79
2022/07/18 07:57:10;;;;;;;4.15;1.85;;;;;;;34.65;20.71;101091.84;5054371;27;96824;-79
2022/07/18 07:59:36;;;;;;;4.22;2.20;;;;;;;35.21;20.17;101098.53;5027811;27;101773;-82
2022/07/18 08:02:01;;;;;;;4.47;1.67;;;;;;;35.15;19.74;101078.34;5056839;27;97875;-84
2022/07/18 08:04:27;;;;;;;6.32;1.88;;;;;;;33.76;20.32;101096.41;5053233;27;96874;-80
2022/07/18 08:06:52;;;;;;;2.90;1.50;;;;;;;33.95;20.54;101089.59;5040517;27;96867;-79
2022/07/18 08:09:18;;;;;;;4.43;1.90;;;;;;;34.42;20.69;101083.75;5025093;27;101341;-77
2022/07/18 08:11:43;;;;;;;2.08;1.20;;;;;;;34.88;19.72;101088.09;5040660;27;101174;-78
2022/07/18 08:14:08;;;;;;;3.75;1.63;;;;;;;35.45;20.05;101079.00;5050194;27;96846;-78
2022/07/18 08:16:34;;;;;;;2.88;1.80;;;;;;;35.12;20.10;101086.91;5031283;27;96973;-77
2022/07/18 08:18:59;;;;;;;5.78;1.75;;;;;;;35.36;19.58;101082.94;5049507;27;97635;-78
2022/07/18 08:21:25;;;;;;;3.00;1.42;;;;;;;35.33;19.73;101083.31;5038225;27;97320;-80
2022/07/18 08:23:50;;;;;;;2.78;1.45;;;;;;;34.43;20.18;101077.25;5032611;27;96730;-78
2022/07/18 08:26:16;;;;;;;4.03;2.17;;;;;;;35.41;20.34;101079.63;5036606;27;97019;-78
2022/07/18 08:28:41;;;;;;;5.13;1.70;;;;;;;35.82;19.21;101083.31;5034084;27;101760;-77
2022/07/18 08:31:07;;;;;;;3.63;1.50;;;;;;;35.71;20.16;101083.03;5052746;27;99653;-76
2022/07/18 08:33:32;;;;;;;4.18;1.88;;;;;;;36.17;20.52;101080.59;5036703;27;97037;-80
2022/07/18 08:35:58;;;;;;;7.03;2.10;;;;;;;36.36;19.59;101079.00;5054166;27;96896;-78
2022/07/18 08:38:23;;;;;;;3.00;1.63;;;;;;;36.35;19.58;101077.31;5035623;27;97992;-83
2022/07/18 08:40:51;;;;;;;5.18;1.50;;;;;;;36.59;19.55;101075.97;5038786;27;97478;-82
2022/07/18 08:43:18;;;;;;;3.38;1.60;;;;;;;36.31;20.63;101072.47;5053217;27;97713;-81
2022/07/18 08:45:43;;;;;;;8.10;1.88;;;;;;;36.22;20.59;101055.41;5053663;27;97300;-82
2022/07/18 08:48:09;;;;;;;5.15;1.73;;;;;;;36.76;20.26;101078.34;5042994;27;101410;-81
2022/07/18 08:50:35;;;;;;;6.00;1.63;;;;;;;37.41;19.47;101071.31;5017130;27;101816;-80
2022/07/18 08:53:01;;;;;;;7.03;1.60;;;;;;;36.79;20.49;101072.44;5061259;27;97390;-81
2022/07/18 08:55:27;;;;;;;2.40;1.20;;;;;;;37.26;19.77;101057.78;5050454;27;97258;-81
2022/07/18 08:57:53;;;;;;;7.35;1.60;;;;;;;37.25;20.29;101066.22;5019074;27;101759;-81
2022/07/18 09:00:20;;;;;;;6.97;2.05;;;;;;;37.47;19.22;101062.28;5051283;27;101279;-80
2022/07/18 09:02:46;;;;;;;4.88;1.92;;;;;;;37.08;19.83;101074.84;5072335;27;96997;-80
2022/07/18 09:05:20;;;;;;;4.63;1.77;;;;;;;37.74;19.06;101070.44;5024057;27;96822;-81
2022/07/18 09:07:45;;;;;;;7.80;1.92;;;;;;;36.96;20.26;101078.38;5058916;27;101306;-81
2022/07/18 09:10:11;;;;;;;4.43;1.88;;;;;;;36.78;20.20;101074.34;5035221;27;101099;-80
2022/07/18 09:12:36;;;;;;;4.28;1.52;;;;;;;36.61;19.77;101071.13;5048841;27;97429;-82
2022/07/18 09:15:07;;;;;;;4.65;1.67;;;;;;;35.66;21.35;101080.03;5037854;27;97402;-81
2022/07/18 09:17:34;;;;;;;3.55;1.67;;;;;;;35.33;20.99;101075.13;5030054;27;101434;-81
2022/07/18 09:20:11;;;;;;;6.00;1.80;;;;;;;34.62;21.72;101059.50;5043023;27;101418;-81
2022/07/18 09:22:38;;;;;;;5.55;1.58;;;;;;;34.42;22.07;101063.84;5029849;27;97315;-81
2022/07/18 09:25:12;;;;;;;4.32;1.30;;;;;;;34.19;20.24;101044.91;5051627;27;97092;-80
2022/07/18 09:27:40;;;;;;;4.40;1.80;;;;;;;34.14;20.90;101059.06;5033971;27;101056;-81
2022/07/18 09:30:21;;;;;;;6.53;1.85;;;;;;;33.24;21.54;101051.78;5040628;27;101466;-81
2022/07/18 09:32:51;;;;;;;2.03;1.38;;;;;;;33.72;21.80;101059.72;5055981;27;96997;-81
2022/07/18 09:35:22;;;;;;;5.78;1.95;;;;;;;33.06;23.25;101051.25;5064048;27;96894;-82
2022/07/18 09:37:52;;;;;;;5.10;2.10;;;;;;;33.39;22.98;101059.13;5019981;27;101318;-80
2022/07/18 09:40:26;;;;;;;4.75;1.60;;;;;;;33.25;22.69;101063.50;5020760;27;101391;-80
2022/07/18 09:42:54;;;;;;;3.80;1.52;;;;;;;32.90;23.59;101063.94;5019409;27;96933;-81
2022/07/18 09:45:25;;;;;;;4.85;1.50;;;;;;;32.75;23.90;101059.44;5049964;27;96898;-81
2022/07/18 09:48:01;;;;;;;6.35;1.67;;;;;;;32.63;23.26;101053.56;5022518;27;101197;-80
2022/07/18 09:50:32;;;;;;;3.72;1.88;;;;;;;32.36;24.01;101039.41;5017836;27;101230;-81
2022/07/18 09:53:00;;;;;;;8.32;2.17;;;;;;;32.47;23.70;101049.91;5051393;27;97329;-82
2022/07/18 09:55:26;;;;;;;5.35;1.40;;;;;;;32.20;22.75;101053.91;5044184;27;97247;-82
2022/07/18 09:58:07;;;;;;;5.63;1.58;;;;;;;31.60;22.75;101059.81;5057379;27;97419;-81
2022/07/18 10:00:35;;;;;;;4.72;1.48;;;;;;;31.35;23.22;101046.25;5021555;27;101434;-80
2022/07/18 10:03:02;;;;;;;5.50;1.70;;;;;;;31.34;23.41;101052.69;5033922;27;97216;-81
2022/07/18 10:05:34;;;;;;;5.63;2.45;;;;;;;31.17;24.44;101033.88;5037639;27;97394;-80
2022/07/18 10:08:01;;;;;;;11.65;4.53;;;;;;;31.19;24.98;101048.13;5039797;27;100906;-80
2022/07/18 10:10:28;;;;;;;9.27;2.65;;;;;;;31.15;25.27;101049.47;5036798;27;97713;-80
2022/07/18 10:12:55;;;;;;;7.25;2.85;;;;;;;30.97;25.14;101047.75;5056243;27;97605;-81
2022/07/18 10:15:23;;;;;;;10.15;3.08;;;;;;;30.80;25.03;101037.91;5053029;27;97008;-81
2022/07/18 10:17:49;;;;;;;4.55;2.40;;;;;;;30.82;25.16;101042.16;5038406;27;97660;-81
2022/07/18 10:20:14;;;;;;;10.23;3.00;;;;;;;30.62;25.97;101038.84;5038315;27;97497;-81
2022/07/18 10:22:44;;;;;;;14.02;4.25;;;;;;;30.44;26.98;101032.72;5027679;27;97539;-81
2022/07/18 10:25:11;;;;;;;4.83;2.10;;;;;;;30.03;25.87;101013.59;5020883;27;96843;-80
2022/07/18 10:28:04;;;;;;;8.77;1.95;;;;;;;29.94;25.68;101041.63;5024650;27;102152;-81
2022/07/18 10:30:41;;;;;;;5.05;1.98;;;;;;;29.65;25.06;101029.28;5022038;27;101400;-80
2022/07/18 10:33:36;;;;;;;8.95;3.30;;;;;;;29.45;27.98;101036.69;5037987;27;97086;-81
2022/07/18 10:36:05;;;;;;;10.82;3.72;;;;;;;29.34;28.25;101036.94;5035856;27;96792;-81
2022/07/18 10:38:30;;;;;;;4.40;1.83;;;;;;;29.18;27.08;101029.56;5025351;27;101563;-82
2022/07/18 10:41:09;;;;;;;8.52;3.88;;;;;;;29.11;28.38;101040.13;5052357;27;97883;-81
2022/07/18 10:43:37;;;;;;;2.33;1.73;;;;;;;28.97;26.48;101031.69;5038111;27;96868;-81
2022/07/18 10:46:04;;;;;;;4.80;2.47;;;;;;;29.00;26.87;101026.84;5061673;27;96927;-81
2022/07/18 10:48:33;;;;;;;2.85;1.95;;;;;;;28.95;27.66;101031.03;5016644;27;101101;-81
2022/07/18 10:51:11;;;;;;;5.40;2.22;;;;;;;28.83;28.37;101035.81;5039861;27;101713;-80
2022/07/18 10:53:57;;;;;;;6.07;2.13;;;;;;;28.79;29.15;101037.94;5011354;27;99839;-81
2022/07/18 10:56:28;;;;;;;6.30;1.70;;;;;;;28.75;27.11;101027.63;5049259;27;97308;-81
2022/07/18 10:58:58;;;;;;;4.38;2.35;;;;;;;28.59;27.01;100996.72;5051861;27;101140;-81
2022/07/18 11:01:25;;;;;;;7.95;2.30;;;;;;;28.54;27.76;101023.34;5029430;27;101264;-84
2022/07/18 11:04:22;;;;;;;4.05;1.80;;;;;;;28.35;27.27;101018.03;5034995;27;97172;-82
2022/07/18 11:07:07;;;;;;;2.78;2.13;;;;;;;28.49;28.06;101022.09;5061547;27;96735;-81
2022/07/18 11:09:42;;;;;;;5.82;1.98;;;;;;;28.41;27.01;101018.31;5032234;27;101302;-81
2022/07/18 11:12:20;;;;;;;5.13;1.90;;;;;;;28.39;27.69;101019.41;5045113;27;102333;-82
2022/07/18 11:15:05;;;;;;;5.68;1.95;;;;;;;28.28;27.38;101009.69;5043331;27;96957;-81
2022/07/18 11:17:53;;;;;;;5.00;1.80;;;;;;;28.23;27.78;101003.88;5037528;27;97175;-81
2022/07/18 11:20:42;;;;;;;2.83;1.80;;;;;;;27.97;30.46;101004.59;5058160;27;101971;-83
2022/07/18 11:23:17;;;;;;;5.30;2.05;;;;;;;27.86;29.48;100996.66;5014381;27;101115;-83
2022/07/18 11:25:43;;;;;;;9.45;3.00;;;;;;;27.61;31.94;101000.03;5045663;27;97402;-83